sensor_id;sensor_type;location;lat;lon;timestamp;pressure;altitude;pressure_sealevel;temperature
61977;BMP280;45905;50.570;10.428;2023-04-16T00:00:29;97691.66;;;9.30
61977;BMP280;45905;50.570;10.428;2023-04-16T00:02:56;97692.44;;;9.30
61977;BMP280;45905;50.570;10.428;2023-04-16T00:05:23;97693.38;;;9.29
61977;BMP280;45905;50.570;10.428;2023-04-16T00:07:50;97697.34;;;9.32
61977;BMP280;45905;50.570;10.428;2023-04-16T00:10:18;97693.09;;;9.32
61977;BMP280;45905;50.570;10.428;2023-04-16T00:12:45;97691.34;;;9.33
61977;BMP280;45905;50.570;10.428;2023-04-16T00:15:12;97698.94;;;9.33
61977;BMP280;45905;50.570;10.428;2023-04-16T00:17:39;97698.78;;;9.34
61977;BMP280;45905;50.570;10.428;2023-04-16T00:20:07;97693.72;;;9.34
61977;BMP280;45905;50.570;10.428;2023-04-16T00:22:35;97696.13;;;9.35
61977;BMP280;45905;50.570;10.428;2023-04-16T00:25:02;97701.97;;;9.36
61977;BMP280;45905;50.570;10.428;2023-04-16T00:27:29;97698.47;;;9.37
61977;BMP280;45905;50.570;10.428;2023-04-16T00:29:56;97699.25;;;9.37
61977;BMP280;45905;50.570;10.428;2023-04-16T00:32:23;97703.38;;;9.38
61977;BMP280;45905;50.570;10.428;2023-04-16T00:34:51;97707.50;;;9.39
61977;BMP280;45905;50.570;10.428;2023-04-16T00:37:18;97704.97;;;9.39
61977;BMP280;45905;50.570;10.428;2023-04-16T00:39:45;97702.44;;;9.39
61977;BMP280;45905;50.570;10.428;2023-04-16T00:42:12;97708.13;;;9.41
61977;BMP280;45905;50.570;10.428;2023-04-16T00:44:39;97700.69;;;9.40
61977;BMP280;45905;50.570;10.428;2023-04-16T00:47:06;97700.84;;;9.38
61977;BMP280;45905;50.570;10.428;2023-04-16T00:49:35;97701.50;;;9.40
61977;BMP280;45905;50.570;10.428;2023-04-16T00:52:02;97703.88;;;9.42
61977;BMP280;45905;50.570;10.428;2023-04-16T00:54:31;97710.66;;;9.41
61977;BMP280;45905;50.570;10.428;2023-04-16T00:56:58;97705.59;;;9.41
61977;BMP280;45905;50.570;10.428;2023-04-16T00:59:26;97708.78;;;9.43
61977;BMP280;45905;50.570;10.428;2023-04-16T01:01:54;97707.19;;;9.42
61977;BMP280;45905;50.570;10.428;2023-04-16T01:04:21;97708.78;;;9.43
61977;BMP280;45905;50.570;10.428;2023-04-16T01:06:49;97712.91;;;9.44
61977;BMP280;45905;50.570;10.428;2023-04-16T01:09:16;97700.25;;;9.44
61977;BMP280;45905;50.570;10.428;2023-04-16T01:11:44;97707.19;;;9.42
61977;BMP280;45905;50.570;10.428;2023-04-16T01:14:11;97704.66;;;9.42
61977;BMP280;45905;50.570;10.428;2023-04-16T01:16:38;97704.00;;;9.40
61977;BMP280;45905;50.570;10.428;2023-04-16T01:19:05;97708.94;;;9.42
61977;BMP280;45905;50.570;10.428;2023-04-16T01:21:33;97708.94;;;9.42
61977;BMP280;45905;50.570;10.428;2023-04-16T01:24:04;97706.41;;;9.42
61977;BMP280;45905;50.570;10.428;2023-04-16T01:26:32;97713.03;;;9.43
61977;BMP280;45905;50.570;10.428;2023-04-16T01:28:59;97709.72;;;9.42
61977;BMP280;45905;50.570;10.428;2023-04-16T01:31:26;97717.31;;;9.42
61977;BMP280;45905;50.570;10.428;2023-04-16T01:34:03;97723.16;;;9.43
61977;BMP280;45905;50.570;10.428;2023-04-16T01:36:31;97721.41;;;9.43
61977;BMP280;45905;50.570;10.428;2023-04-16T01:38:58;97717.94;;;9.44
61977;BMP280;45905;50.570;10.428;2023-04-16T01:41:25;97728.06;;;9.44
61977;BMP280;45905;50.570;10.428;2023-04-16T01:43:53;97720.47;;;9.44
61977;BMP280;45905;50.570;10.428;2023-04-16T01:46:26;97723.00;;;9.44
61977;BMP280;45905;50.570;10.428;2023-04-16T01:48:54;97717.16;;;9.44
61977;BMP280;45905;50.570;10.428;2023-04-16T01:51:22;97724.75;;;9.44
61977;BMP280;45905;50.570;10.428;2023-04-16T01:53:50;97723.00;;;9.44
61977;BMP280;45905;50.570;10.428;2023-04-16T01:56:17;97728.06;;;9.44
61977;BMP280;45905;50.570;10.428;2023-04-16T01:58:44;97727.88;;;9.46
61977;BMP280;45905;50.570;10.428;2023-04-16T02:01:16;97723.78;;;9.45
61977;BMP280;45905;50.570;10.428;2023-04-16T02:03:45;97722.81;;;9.46
61977;BMP280;45905;50.570;10.428;2023-04-16T02:06:14;97722.06;;;9.45
61977;BMP280;45905;50.570;10.428;2023-04-16T02:08:41;97719.53;;;9.45
61977;BMP280;45905;50.570;10.428;2023-04-16T02:11:09;97725.34;;;9.46
61977;BMP280;45905;50.570;10.428;2023-04-16T02:13:36;97726.16;;;9.46
61977;BMP280;45905;50.570;10.428;2023-04-16T02:16:04;97725.22;;;9.47
61977;BMP280;45905;50.570;10.428;2023-04-16T02:18:41;97732.19;;;9.45
61977;BMP280;45905;50.570;10.428;2023-04-16T02:21:10;97730.59;;;9.44
61977;BMP280;45905;50.570;10.428;2023-04-16T02:23:37;97726.47;;;9.43
61977;BMP280;45905;50.570;10.428;2023-04-16T02:26:06;97729.78;;;9.44
61977;BMP280;45905;50.570;10.428;2023-04-16T02:28:34;97736.44;;;9.45
61977;BMP280;45905;50.570;10.428;2023-04-16T02:31:01;97725.81;;;9.41
61977;BMP280;45905;50.570;10.428;2023-04-16T02:33:35;97737.53;;;9.42
61977;BMP280;45905;50.570;10.428;2023-04-16T02:36:02;97729.16;;;9.42
61977;BMP280;45905;50.570;10.428;2023-04-16T02:38:30;97738.19;;;9.44
61977;BMP280;45905;50.570;10.428;2023-04-16T02:40:57;97735.00;;;9.42
61977;BMP280;45905;50.570;10.428;2023-04-16T02:43:25;97737.53;;;9.42
61977;BMP280;45905;50.570;10.428;2023-04-16T02:45:52;97737.53;;;9.42
61977;BMP280;45905;50.570;10.428;2023-04-16T02:48:19;97741.78;;;9.42
61977;BMP280;45905;50.570;10.428;2023-04-16T02:50:46;97744.31;;;9.42
61977;BMP280;45905;50.570;10.428;2023-04-16T02:53:13;97741.78;;;9.42
61977;BMP280;45905;50.570;10.428;2023-04-16T02:55:40;97739.25;;;9.42
61977;BMP280;45905;50.570;10.428;2023-04-16T02:58:07;97742.59;;;9.42
61977;BMP280;45905;50.570;10.428;2023-04-16T03:00:35;97742.88;;;9.39
61977;BMP280;45905;50.570;10.428;2023-04-16T03:03:02;97740.50;;;9.38
61977;BMP280;45905;50.570;10.428;2023-04-16T03:05:29;97746.19;;;9.40
61977;BMP280;45905;50.570;10.428;2023-04-16T03:07:57;97743.66;;;9.40
61977;BMP280;45905;50.570;10.428;2023-04-16T03:10:24;97743.53;;;9.41
61977;BMP280;45905;50.570;10.428;2023-04-16T03:12:51;97746.06;;;9.41
61977;BMP280;45905;50.570;10.428;2023-04-16T03:15:18;97749.38;;;9.42
61977;BMP280;45905;50.570;10.428;2023-04-16T03:17:45;97751.75;;;9.43
61977;BMP280;45905;50.570;10.428;2023-04-16T03:20:12;97748.28;;;9.44
61977;BMP280;45905;50.570;10.428;2023-04-16T03:22:40;97751.59;;;9.45
61977;BMP280;45905;50.570;10.428;2023-04-16T03:25:08;97761.88;;;9.43
61977;BMP280;45905;50.570;10.428;2023-04-16T03:27:35;97750.16;;;9.42
61977;BMP280;45905;50.570;10.428;2023-04-16T03:30:03;97746.06;;;9.41
61977;BMP280;45905;50.570;10.428;2023-04-16T03:32:33;97751.91;;;9.42
61977;BMP280;45905;50.570;10.428;2023-04-16T03:35:07;97762.00;;;9.42
61977;BMP280;45905;50.570;10.428;2023-04-16T03:37:35;97762.16;;;9.40
61977;BMP280;45905;50.570;10.428;2023-04-16T03:40:02;97766.28;;;9.41
61977;BMP280;45905;50.570;10.428;2023-04-16T03:42:31;97767.22;;;9.40
61977;BMP280;45905;50.570;10.428;2023-04-16T03:44:59;97766.28;;;9.41
61977;BMP280;45905;50.570;10.428;2023-04-16T03:47:27;97773.84;;;9.41
61977;BMP280;45905;50.570;10.428;2023-04-16T03:49:58;97769.75;;;9.40
61977;BMP280;45905;50.570;10.428;2023-04-16T03:52:26;97774.81;;;9.40
61977;BMP280;45905;50.570;10.428;2023-04-16T03:54:54;97772.41;;;9.39
61977;BMP280;45905;50.570;10.428;2023-04-16T03:57:26;97776.69;;;9.38
61977;BMP280;45905;50.570;10.428;2023-04-16T03:59:59;97774.94;;;9.39
61977;BMP280;45905;50.570;10.428;2023-04-16T04:02:29;97771.63;;;9.38
61977;BMP280;45905;50.570;10.428;2023-04-16T04:04:56;97775.09;;;9.37
61977;BMP280;45905;50.570;10.428;2023-04-16T04:07:23;97782.66;;;9.37
61977;BMP280;45905;50.570;10.428;2023-04-16T04:09:51;97780.16;;;9.37
61977;BMP280;45905;50.570;10.428;2023-04-16T04:12:18;97789.47;;;9.37
61977;BMP280;45905;50.570;10.428;2023-04-16T04:14:46;97781.88;;;9.37
61977;BMP280;45905;50.570;10.428;2023-04-16T04:17:13;97788.69;;;9.36
61977;BMP280;45905;50.570;10.428;2023-04-16T04:19:40;97783.66;;;9.36
61977;BMP280;45905;50.570;10.428;2023-04-16T04:22:20;97790.44;;;9.36
61977;BMP280;45905;50.570;10.428;2023-04-16T04:24:47;97790.56;;;9.34
61977;BMP280;45905;50.570;10.428;2023-04-16T04:27:14;97804.16;;;9.33
61977;BMP280;45905;50.570;10.428;2023-04-16T04:29:41;97803.22;;;9.34
61977;BMP280;45905;50.570;10.428;2023-04-16T04:32:09;97801.78;;;9.32
61977;BMP280;45905;50.570;10.428;2023-04-16T04:34:36;97793.91;;;9.35
61977;BMP280;45905;50.570;10.428;2023-04-16T04:37:05;97801.63;;;9.33
61977;BMP280;45905;50.570;10.428;2023-04-16T04:39:32;97802.56;;;9.33
61977;BMP280;45905;50.570;10.428;2023-04-16T04:42:00;97806.81;;;9.32
61977;BMP280;45905;50.570;10.428;2023-04-16T04:44:29;97807.47;;;9.34
61977;BMP280;45905;50.570;10.428;2023-04-16T04:46:56;97810.16;;;9.33
61977;BMP280;45905;50.570;10.428;2023-04-16T04:49:23;97822.78;;;9.33
61977;BMP280;45905;50.570;10.428;2023-04-16T04:51:51;97814.41;;;9.32
61977;BMP280;45905;50.570;10.428;2023-04-16T04:54:19;97817.88;;;9.31
61977;BMP280;45905;50.570;10.428;2023-04-16T04:56:47;97817.09;;;9.31
61977;BMP280;45905;50.570;10.428;2023-04-16T04:59:14;97812.16;;;9.29
61977;BMP280;45905;50.570;10.428;2023-04-16T05:01:41;97820.56;;;9.30
61977;BMP280;45905;50.570;10.428;2023-04-16T05:04:08;97825.59;;;9.30
61977;BMP280;45905;50.570;10.428;2023-04-16T05:06:35;97824.00;;;9.29
61977;BMP280;45905;50.570;10.428;2023-04-16T05:09:02;97828.44;;;9.27
61977;BMP280;45905;50.570;10.428;2023-04-16T05:11:30;97831.59;;;9.29
61977;BMP280;45905;50.570;10.428;2023-04-16T05:13:57;97831.59;;;9.29
61977;BMP280;45905;50.570;10.428;2023-04-16T05:16:24;97831.59;;;9.29
61977;BMP280;45905;50.570;10.428;2023-04-16T05:18:51;97833.34;;;9.28
61977;BMP280;45905;50.570;10.428;2023-04-16T05:21:18;97839.03;;;9.30
61977;BMP280;45905;50.570;10.428;2023-04-16T05:23:45;97840.91;;;9.28
61977;BMP280;45905;50.570;10.428;2023-04-16T05:26:12;97843.28;;;9.30
61977;BMP280;45905;50.570;10.428;2023-04-16T05:28:40;97838.38;;;9.28
61977;BMP280;45905;50.570;10.428;2023-04-16T05:31:07;97841.09;;;9.27
61977;BMP280;45905;50.570;10.428;2023-04-16T05:33:34;97850.53;;;9.25
61977;BMP280;45905;50.570;10.428;2023-04-16T05:36:01;97844.69;;;9.24
61977;BMP280;45905;50.570;10.428;2023-04-16T05:38:28;97855.59;;;9.25
61977;BMP280;45905;50.570;10.428;2023-04-16T05:40:57;97859.84;;;9.24
61977;BMP280;45905;50.570;10.428;2023-04-16T05:43:24;97863.31;;;9.23
61977;BMP280;45905;50.570;10.428;2023-04-16T05:45:51;97868.25;;;9.25
61977;BMP280;45905;50.570;10.428;2023-04-16T05:48:18;97878.50;;;9.23
61977;BMP280;45905;50.570;10.428;2023-04-16T05:50:46;97869.19;;;9.24
61977;BMP280;45905;50.570;10.428;2023-04-16T05:53:13;97884.34;;;9.24
61977;BMP280;45905;50.570;10.428;2023-04-16T05:55:40;97886.88;;;9.24
61977;BMP280;45905;50.570;10.428;2023-04-16T05:58:07;97894.44;;;9.24
61977;BMP280;45905;50.570;10.428;2023-04-16T06:00:34;97889.41;;;9.24
61977;BMP280;45905;50.570;10.428;2023-04-16T06:03:01;97897.13;;;9.22
61977;BMP280;45905;50.570;10.428;2023-04-16T06:05:30;97898.84;;;9.22
61977;BMP280;45905;50.570;10.428;2023-04-16T06:07:57;97897.13;;;9.22
61977;BMP280;45905;50.570;10.428;2023-04-16T06:10:24;97900.59;;;9.21
61977;BMP280;45905;50.570;10.428;2023-04-16T06:12:51;97903.91;;;9.22
61977;BMP280;45905;50.570;10.428;2023-04-16T06:15:18;97902.97;;;9.23
61977;BMP280;45905;50.570;10.428;2023-04-16T06:17:45;97903.09;;;9.21
61977;BMP280;45905;50.570;10.428;2023-04-16T06:20:13;97906.44;;;9.22
61977;BMP280;45905;50.570;10.428;2023-04-16T06:22:40;97904.03;;;9.20
61977;BMP280;45905;50.570;10.428;2023-04-16T06:25:08;97907.38;;;9.21
61977;BMP280;45905;50.570;10.428;2023-04-16T06:27:35;97904.03;;;9.20
61977;BMP280;45905;50.570;10.428;2023-04-16T06:30:03;97906.44;;;9.22
61977;BMP280;45905;50.570;10.428;2023-04-16T06:32:30;97910.41;;;9.24
61977;BMP280;45905;50.570;10.428;2023-04-16T06:34:57;97911.19;;;9.25
61977;BMP280;45905;50.570;10.428;2023-04-16T06:37:25;97918.78;;;9.25
61977;BMP280;45905;50.570;10.428;2023-04-16T06:39:52;97912.78;;;9.26
61977;BMP280;45905;50.570;10.428;2023-04-16T06:42:19;97919.44;;;9.27
61977;BMP280;45905;50.570;10.428;2023-04-16T06:44:46;97925.44;;;9.26
61977;BMP280;45905;50.570;10.428;2023-04-16T06:47:13;97921.97;;;9.27
61977;BMP280;45905;50.570;10.428;2023-04-16T06:49:41;97931.91;;;9.28
61977;BMP280;45905;50.570;10.428;2023-04-16T06:52:08;97938.56;;;9.29
61977;BMP280;45905;50.570;10.428;2023-04-16T06:54:35;97940.16;;;9.30
61977;BMP280;45905;50.570;10.428;2023-04-16T06:57:02;97936.19;;;9.28
61977;BMP280;45905;50.570;10.428;2023-04-16T06:59:30;97941.25;;;9.28
61977;BMP280;45905;50.570;10.428;2023-04-16T07:01:57;97936.81;;;9.30
61977;BMP280;45905;50.570;10.428;2023-04-16T07:04:24;97945.19;;;9.30
61977;BMP280;45905;50.570;10.428;2023-04-16T07:06:52;97933.34;;;9.31
61977;BMP280;45905;50.570;10.428;2023-04-16T07:09:19;97942.53;;;9.32
61977;BMP280;45905;50.570;10.428;2023-04-16T07:11:46;97941.59;;;9.33
61977;BMP280;45905;50.570;10.428;2023-04-16T07:14:13;97937.34;;;9.33
61977;BMP280;45905;50.570;10.428;2023-04-16T07:16:40;97940.66;;;9.33
61977;BMP280;45905;50.570;10.428;2023-04-16T07:19:07;97938.78;;;9.35
61977;BMP280;45905;50.570;10.428;2023-04-16T07:21:35;97941.13;;;9.37
61977;BMP280;45905;50.570;10.428;2023-04-16T07:24:02;97946.06;;;9.38
61977;BMP280;45905;50.570;10.428;2023-04-16T07:26:29;97945.91;;;9.40
61977;BMP280;45905;50.570;10.428;2023-04-16T07:28:57;97952.56;;;9.41
61977;BMP280;45905;50.570;10.428;2023-04-16T07:31:24;97944.97;;;9.41
61977;BMP280;45905;50.570;10.428;2023-04-16T07:33:51;97954.94;;;9.42
61977;BMP280;45905;50.570;10.428;2023-04-16T07:36:19;97955.59;;;9.44
61977;BMP280;45905;50.570;10.428;2023-04-16T07:38:46;97957.97;;;9.46
61977;BMP280;45905;50.570;10.428;2023-04-16T07:41:14;97957.81;;;9.47
61977;BMP280;45905;50.570;10.428;2023-04-16T07:43:41;97961.00;;;9.49
61977;BMP280;45905;50.570;10.428;2023-04-16T07:46:08;97961.13;;;9.48
61977;BMP280;45905;50.570;10.428;2023-04-16T07:48:35;97961.94;;;9.48
61977;BMP280;45905;50.570;10.428;2023-04-16T07:51:02;97965.13;;;9.50
61977;BMP280;45905;50.570;10.428;2023-04-16T07:53:30;97964.97;;;9.52
61977;BMP280;45905;50.570;10.428;2023-04-16T07:55:57;97974.16;;;9.52
61977;BMP280;45905;50.570;10.428;2023-04-16T07:58:24;97974.16;;;9.52
61977;BMP280;45905;50.570;10.428;2023-04-16T08:00:51;97980.81;;;9.53
61977;BMP280;45905;50.570;10.428;2023-04-16T08:03:18;97973.84;;;9.55
61977;BMP280;45905;50.570;10.428;2023-04-16T08:05:45;97979.69;;;9.56
61977;BMP280;45905;50.570;10.428;2023-04-16T08:08:13;97980.34;;;9.58
61977;BMP280;45905;50.570;10.428;2023-04-16T08:10:40;97987.00;;;9.59
61977;BMP280;45905;50.570;10.428;2023-04-16T08:13:07;97991.91;;;9.60
61977;BMP280;45905;50.570;10.428;2023-04-16T08:15:34;97992.72;;;9.61
61977;BMP280;45905;50.570;10.428;2023-04-16T08:18:01;97992.56;;;9.62
61977;BMP280;45905;50.570;10.428;2023-04-16T08:20:29;97998.41;;;9.63
61977;BMP280;45905;50.570;10.428;2023-04-16T08:22:56;98006.63;;;9.65
61977;BMP280;45905;50.570;10.428;2023-04-16T08:25:23;97998.25;;;9.64
61977;BMP280;45905;50.570;10.428;2023-04-16T08:27:50;98010.75;;;9.66
61977;BMP280;45905;50.570;10.428;2023-04-16T08:30:17;98013.28;;;9.66
61977;BMP280;45905;50.570;10.428;2023-04-16T08:32:44;98020.72;;;9.67
61977;BMP280;45905;50.570;10.428;2023-04-16T08:35:15;98013.78;;;9.69
61977;BMP280;45905;50.570;10.428;2023-04-16T08:37:43;98023.75;;;9.71
61977;BMP280;45905;50.570;10.428;2023-04-16T08:40:10;98018.84;;;9.69
61977;BMP280;45905;50.570;10.428;2023-04-16T08:42:44;98033.09;;;9.70
61977;BMP280;45905;50.570;10.428;2023-04-16T08:45:16;98026.28;;;9.71
61977;BMP280;45905;50.570;10.428;2023-04-16T08:47:51;98028.81;;;9.71
61977;BMP280;45905;50.570;10.428;2023-04-16T08:50:29;98026.28;;;9.71
61977;BMP280;45905;50.570;10.428;2023-04-16T08:53:05;98032.78;;;9.73
61977;BMP280;45905;50.570;10.428;2023-04-16T08:55:47;98038.63;;;9.73
61977;BMP280;45905;50.570;10.428;2023-04-16T08:58:20;98032.63;;;9.74
61977;BMP280;45905;50.570;10.428;2023-04-16T09:00:48;98033.56;;;9.73
61977;BMP280;45905;50.570;10.428;2023-04-16T09:03:16;98044.34;;;9.75
61977;BMP280;45905;50.570;10.428;2023-04-16T09:05:46;98039.94;;;9.77
61977;BMP280;45905;50.570;10.428;2023-04-16T09:08:13;98047.53;;;9.77
61977;BMP280;45905;50.570;10.428;2023-04-16T09:10:42;98055.63;;;9.81
61977;BMP280;45905;50.570;10.428;2023-04-16T09:13:09;98052.34;;;9.80
61977;BMP280;45905;50.570;10.428;2023-04-16T09:15:40;98049.63;;;9.82
61977;BMP280;45905;50.570;10.428;2023-04-16T09:18:08;98058.66;;;9.84
61977;BMP280;45905;50.570;10.428;2023-04-16T09:20:36;98056.28;;;9.83
61977;BMP280;45905;50.570;10.428;2023-04-16T09:23:03;98055.34;;;9.84
61977;BMP280;45905;50.570;10.428;2023-04-16T09:25:33;98051.88;;;9.85
61977;BMP280;45905;50.570;10.428;2023-04-16T09:28:01;98065.19;;;9.87
61977;BMP280;45905;50.570;10.428;2023-04-16T09:30:28;98067.72;;;9.87
61977;BMP280;45905;50.570;10.428;2023-04-16T09:33:18;98068.50;;;9.87
61977;BMP280;45905;50.570;10.428;2023-04-16T09:35:51;98070.25;;;9.87
61977;BMP280;45905;50.570;10.428;2023-04-16T09:38:19;98074.38;;;9.88
61977;BMP280;45905;50.570;10.428;2023-04-16T09:40:47;98077.03;;;9.86
61977;BMP280;45905;50.570;10.428;2023-04-16T09:43:17;98083.03;;;9.85
61977;BMP280;45905;50.570;10.428;2023-04-16T09:45:53;98086.38;;;9.86
61977;BMP280;45905;50.570;10.428;2023-04-16T09:48:31;98084.63;;;9.86
61977;BMP280;45905;50.570;10.428;2023-04-16T09:51:00;98091.44;;;9.86
61977;BMP280;45905;50.570;10.428;2023-04-16T09:53:29;98092.22;;;9.86
61977;BMP280;45905;50.570;10.428;2023-04-16T09:56:03;98097.28;;;9.86
61977;BMP280;45905;50.570;10.428;2023-04-16T09:58:30;98092.22;;;9.86
61977;BMP280;45905;50.570;10.428;2023-04-16T10:01:06;98103.00;;;9.88
61977;BMP280;45905;50.570;10.428;2023-04-16T10:03:35;98103.47;;;9.91
61977;BMP280;45905;50.570;10.428;2023-04-16T10:08:35;98115.06;;;9.94
61977;BMP280;45905;50.570;10.428;2023-04-16T10:11:02;98126.78;;;9.95
61977;BMP280;45905;50.570;10.428;2023-04-16T10:13:30;98129.16;;;9.96
61977;BMP280;45905;50.570;10.428;2023-04-16T10:15:59;98120.63;;;9.97
61977;BMP280;45905;50.570;10.428;2023-04-16T10:18:28;98124.25;;;9.95
61977;BMP280;45905;50.570;10.428;2023-04-16T10:20:56;98129.94;;;9.97
61977;BMP280;45905;50.570;10.428;2023-04-16T10:23:23;98133.44;;;9.96
61977;BMP280;45905;50.570;10.428;2023-04-16T10:25:53;98137.69;;;9.95
61977;BMP280;45905;50.570;10.428;2023-04-16T10:28:23;98139.41;;;9.95
61977;BMP280;45905;50.570;10.428;2023-04-16T10:30:52;98140.34;;;9.94
61977;BMP280;45905;50.570;10.428;2023-04-16T10:33:25;98147.28;;;9.92
61977;BMP280;45905;50.570;10.428;2023-04-16T10:36:13;98142.69;;;9.88
61977;BMP280;45905;50.570;10.428;2023-04-16T10:38:51;98147.75;;;9.88
61977;BMP280;45905;50.570;10.428;2023-04-16T10:41:21;98150.56;;;9.85
61977;BMP280;45905;50.570;10.428;2023-04-16T10:43:49;98146.56;;;9.82
61977;BMP280;45905;50.570;10.428;2023-04-16T10:46:29;98146.56;;;9.82
61977;BMP280;45905;50.570;10.428;2023-04-16T10:49:11;98155.75;;;9.83
61977;BMP280;45905;50.570;10.428;2023-04-16T10:51:38;98150.03;;;9.81
61977;BMP280;45905;50.570;10.428;2023-04-16T10:56:37;98159.78;;;9.76
61977;BMP280;45905;50.570;10.428;2023-04-16T10:59:09;98159.13;;;9.74
61977;BMP280;45905;50.570;10.428;2023-04-16T11:01:41;98158.19;;;9.75
61977;BMP280;45905;50.570;10.428;2023-04-16T11:09:57;98157.25;;;9.76
61977;BMP280;45905;50.570;10.428;2023-04-16T11:17:36;98158.19;;;9.75
61977;BMP280;45905;50.570;10.428;2023-04-16T11:20:15;98161.16;;;9.71
61977;BMP280;45905;50.570;10.428;2023-04-16T11:22:45;98157.84;;;9.71
61977;BMP280;45905;50.570;10.428;2023-04-16T11:25:28;98158.63;;;9.71
61977;BMP280;45905;50.570;10.428;2023-04-16T11:28:01;98157.84;;;9.71
61977;BMP280;45905;50.570;10.428;2023-04-16T11:30:33;98162.22;;;9.69
61977;BMP280;45905;50.570;10.428;2023-04-16T11:33:10;98163.03;;;9.69
61977;BMP280;45905;50.570;10.428;2023-04-16T11:35:39;98169.81;;;9.69
61977;BMP280;45905;50.570;10.428;2023-04-16T11:38:07;98160.63;;;9.68
61977;BMP280;45905;50.570;10.428;2023-04-16T11:40:34;98157.16;;;9.69
61977;BMP280;45905;50.570;10.428;2023-04-16T11:43:14;98173.16;;;9.69
61977;BMP280;45905;50.570;10.428;2023-04-16T11:46:03;98168.22;;;9.68
61977;BMP280;45905;50.570;10.428;2023-04-16T11:48:51;98166.78;;;9.65
61977;BMP280;45905;50.570;10.428;2023-04-16T11:51:18;98168.81;;;9.62
61977;BMP280;45905;50.570;10.428;2023-04-16T11:53:51;98170.94;;;9.57
61977;BMP280;45905;50.570;10.428;2023-04-16T11:56:27;98178.53;;;9.57
61977;BMP280;45905;50.570;10.428;2023-04-16T12:01:40;98185.63;;;9.53
61977;BMP280;45905;50.570;10.428;2023-04-16T12:04:08;98181.38;;;9.54
61977;BMP280;45905;50.570;10.428;2023-04-16T12:06:36;98190.16;;;9.50
61977;BMP280;45905;50.570;10.428;2023-04-16T12:09:23;98189.50;;;9.48
61977;BMP280;45905;50.570;10.428;2023-04-16T12:11:51;98199.75;;;9.47
61977;BMP280;45905;50.570;10.428;2023-04-16T12:14:18;98196.28;;;9.48
61977;BMP280;45905;50.570;10.428;2023-04-16T12:16:46;98204.00;;;9.46
61977;BMP280;45905;50.570;10.428;2023-04-16T12:19:14;98194.06;;;9.45
61977;BMP280;45905;50.570;10.428;2023-04-16T12:21:47;98200.69;;;9.46
61977;BMP280;45905;50.570;10.428;2023-04-16T12:24:17;98200.84;;;9.44
61977;BMP280;45905;50.570;10.428;2023-04-16T12:26:53;98209.38;;;9.43
61977;BMP280;45905;50.570;10.428;2023-04-16T12:29:28;98200.84;;;9.44
61977;BMP280;45905;50.570;10.428;2023-04-16T12:31:55;98201.50;;;9.46
61977;BMP280;45905;50.570;10.428;2023-04-16T12:34:23;98201.34;;;9.48
61977;BMP280;45905;50.570;10.428;2023-04-16T12:37:10;98214.78;;;9.48
61977;BMP280;45905;50.570;10.428;2023-04-16T12:39:39;98209.06;;;9.46
61977;BMP280;45905;50.570;10.428;2023-04-16T12:42:06;98216.03;;;9.44
61977;BMP280;45905;50.570;10.428;2023-04-16T12:44:37;98207.91;;;9.41
61977;BMP280;45905;50.570;10.428;2023-04-16T12:47:04;98211.25;;;9.41
61977;BMP280;45905;50.570;10.428;2023-04-16T12:49:31;98210.56;;;9.39
61977;BMP280;45905;50.570;10.428;2023-04-16T12:51:58;98210.72;;;9.38
61977;BMP280;45905;50.570;10.428;2023-04-16T12:54:25;98209.28;;;9.35
61977;BMP280;45905;50.570;10.428;2023-04-16T12:56:56;98212.75;;;9.34
61977;BMP280;45905;50.570;10.428;2023-04-16T12:59:24;98213.69;;;9.33
61977;BMP280;45905;50.570;10.428;2023-04-16T13:01:51;98210.50;;;9.32
61977;BMP280;45905;50.570;10.428;2023-04-16T13:04:18;98214.47;;;9.34
61977;BMP280;45905;50.570;10.428;2023-04-16T13:06:45;98211.16;;;9.33
61977;BMP280;45905;50.570;10.428;2023-04-16T13:09:13;98220.59;;;9.32
61977;BMP280;45905;50.570;10.428;2023-04-16T13:11:40;98218.06;;;9.32
61977;BMP280;45905;50.570;10.428;2023-04-16T13:14:07;98208.63;;;9.33
61977;BMP280;45905;50.570;10.428;2023-04-16T13:16:34;98214.75;;;9.31
61977;BMP280;45905;50.570;10.428;2023-04-16T13:19:02;98223.78;;;9.33
61977;BMP280;45905;50.570;10.428;2023-04-16T13:21:29;98216.47;;;9.31
61977;BMP280;45905;50.570;10.428;2023-04-16T13:23:58;98228.19;;;9.32
61977;BMP280;45905;50.570;10.428;2023-04-16T13:26:25;98219.66;;;9.33
61977;BMP280;45905;50.570;10.428;2023-04-16T13:28:52;98229.66;;;9.34
61977;BMP280;45905;50.570;10.428;2023-04-16T13:31:20;98221.94;;;9.35
61977;BMP280;45905;50.570;10.428;2023-04-16T13:33:49;98226.97;;;9.35
61977;BMP280;45905;50.570;10.428;2023-04-16T13:36:16;98226.97;;;9.35
61977;BMP280;45905;50.570;10.428;2023-04-16T13:38:43;98229.50;;;9.35
61977;BMP280;45905;50.570;10.428;2023-04-16T13:41:11;98232.03;;;9.35
61977;BMP280;45905;50.570;10.428;2023-04-16T13:43:38;98226.97;;;9.35
61977;BMP280;45905;50.570;10.428;2023-04-16T13:46:05;98237.72;;;9.37
61977;BMP280;45905;50.570;10.428;2023-04-16T13:48:32;98222.41;;;9.39
61977;BMP280;45905;50.570;10.428;2023-04-16T13:51:00;98229.88;;;9.40
61977;BMP280;45905;50.570;10.428;2023-04-16T13:53:27;98233.19;;;9.41
61977;BMP280;45905;50.570;10.428;2023-04-16T13:55:54;98231.47;;;9.41
61977;BMP280;45905;50.570;10.428;2023-04-16T13:58:22;98234.94;;;9.40
61977;BMP280;45905;50.570;10.428;2023-04-16T14:00:49;98237.47;;;9.40
61977;BMP280;45905;50.570;10.428;2023-04-16T14:03:16;98241.59;;;9.41
61977;BMP280;45905;50.570;10.428;2023-04-16T14:05:43;98235.59;;;9.42
61977;BMP280;45905;50.570;10.428;2023-04-16T14:08:10;98240.78;;;9.41
61977;BMP280;45905;50.570;10.428;2023-04-16T14:10:39;98239.19;;;9.40
61977;BMP280;45905;50.570;10.428;2023-04-16T14:13:07;98240.25;;;9.37
61977;BMP280;45905;50.570;10.428;2023-04-16T14:15:34;98246.28;;;9.36
61977;BMP280;45905;50.570;10.428;2023-04-16T14:18:01;98245.59;;;9.34
61977;BMP280;45905;50.570;10.428;2023-04-16T14:20:29;98244.81;;;9.34
61977;BMP280;45905;50.570;10.428;2023-04-16T14:22:57;98242.41;;;9.33
61977;BMP280;45905;50.570;10.428;2023-04-16T14:25:24;98241.63;;;9.32
61977;BMP280;45905;50.570;10.428;2023-04-16T14:27:52;98245.88;;;9.32
61977;BMP280;45905;50.570;10.428;2023-04-16T14:30:19;98242.41;;;9.33
61977;BMP280;45905;50.570;10.428;2023-04-16T14:32:46;98248.28;;;9.33
61977;BMP280;45905;50.570;10.428;2023-04-16T14:35:13;98246.53;;;9.33